Sarajevo, Bosnia and Herzegovina
Current Conditions -  °F | °C
As of 6:30 AM on Monday 22 Dec 2014 (Local Time) from LQSA Reporting Station
Clear Clear  
Wind Chill: 21°   Ceiling: Unl
Heat Index: 21°   Visibility: 5mi
Dew Point: 21°   Wind: 1mph
Humidity: 100%   Direction: NA
Pressure: 30.42"   Gusts: NA
Location:  43.85°N, 18.38°E
Report Text: LQSA 220430Z VRB01KT 8000 NSC M06/M06 Q1030 NOSIG
Loading
Personal Weather Stations






























Interactive Weather Map New forecast layout! Learn more

10-Day Weather Forecast

Advertisements
Track Severe Weather on mobile